Brainerd, Minnesota
Current Conditions -  °F | °C
As of 9:30 PM on Friday 28 Nov 2014 (Local Time) from KBRD Reporting Station
Overcast Overcast  
Wind Chill: -15°   Ceiling: 1700
Heat Index: -9°   Visibility: 8mi
Dew Point: -11°   Wind: 8mph
Humidity: 84%   Direction: 140°SE
Pressure: 29.72"   Gusts: NA
Location:  46.35°N, 94.2°W
Report Text: KBRD 290330Z AUTO 14007KT 8SM BKN017 OVC032 M09/M11 A2972 RMK AO2 T10891111
Loading
Personal Weather Stations






























Interactive Weather Map New forecast layout! Learn more

10-Day Weather Forecast

Advertisements
Track Severe Weather on mobile